Portada
METAR-TAF:

METAR-TAF

Aeropuertos :

Base Aérea de Torrejón / Aeropuerto de Madrid-Torrejón

Madrid-Torrejón, España

latitud: 40-29N, longitud: 003-27W, altitud: 607 m

Observación

El informe se hizo hace 38 minutos, a las 14:00 UTC
Viento 3 kt del sur-suroeste, variando entre sur-sureste y oeste
Temperatura 16°C
Humedad 27%
Presión 1030 hPa
Visibilidad 10 km o más
sin nubes por debajo de 1500 m y sin presencia de cumulonimbus.

METAR: LETO 031400Z 21003KT 160V270 CAVOK 16/M03 Q1030 NOSIG

Hora: 15:38 (14:38 UTC)

Pronóstico

El informe se hizo hace 3 horas y 38 minutos, a las 11:00 UTC
Pronóstico válido del 03 a las 12 UTC al 04 a las 12 UTC
Viento 3 kt con dirección variable
Visibilidad 10 km o más
sin nubes por debajo de 1500 m y sin presencia de cumulonimbus.

TAF: LETO 031100Z 0312/0412 VRB03KT CAVOK TX16/0315Z TNM03/0406Z

Observaciones y pronósticos meteorológicos de más de 4000 aeropuertos (mensajes METAR y TAF).

Los puntos amarillos y rojos representan las estaciones disponibles.

Ponga el ratón en el punto deseado para ver el nombre de la estación.

Haga clic para ver las observaciones y los pronósticos meteorológicos.

Para cambiar el mapa : haga clic en los botones verdes con una cruz de color negro para hacer un zoom, en el botón verde con un guión para alejar o en las flechas verdes para mapas adyacentes.


METAR-TAF: